Time;durP1;ratioP1;P1;durP2;ratioP2;P2;SDS_P1;SDS_P2;PMS_P1;PMS_P2;Temp;Humidity;BMP_temperature;BMP_pressure;BME280_temperature;BME280_humidity;BME280_pressure;Samples;Min_cycle;Max_cycle;Signal;HPM_P1;HPM_P2
2023/03/29 00:00:31;;;;;;;2.87;1.08;;;;;;;23.67;36.82;100453.16;4377458;32;34589;-66
2023/03/29 00:03:01;;;;;;;2.20;1.00;;;;;;;23.65;36.84;100449.81;4339691;32;33756;-66
2023/03/29 00:05:32;;;;;;;2.75;0.98;;;;;;;23.66;36.84;100462.38;4364127;32;33699;-64
2023/03/29 00:08:03;;;;;;;2.50;0.98;;;;;;;23.65;36.85;100460.72;4352031;32;33211;-65
2023/03/29 00:10:31;;;;;;;2.87;1.05;;;;;;;23.65;36.88;100458.00;4351882;32;33844;-65
2023/03/29 00:12:59;;;;;;;2.22;0.80;;;;;;;23.64;36.93;100459.03;4348955;32;34984;-66
2023/03/29 00:15:26;;;;;;;3.67;1.00;;;;;;;23.64;36.94;100459.03;4348708;32;33361;-64
2023/03/29 00:17:54;;;;;;;1.52;0.90;;;;;;;23.63;36.97;100451.03;4348834;32;33517;-65
2023/03/29 00:20:22;;;;;;;1.70;0.80;;;;;;;23.62;36.93;100450.19;4362314;32;34715;-66
2023/03/29 00:22:50;;;;;;;2.15;0.88;;;;;;;23.62;36.94;100446.63;4336284;32;33359;-68
2023/03/29 00:25:17;;;;;;;2.65;0.90;;;;;;;23.60;36.95;100452.31;4336249;32;32876;-65
2023/03/29 00:27:45;;;;;;;2.08;0.90;;;;;;;23.61;36.95;100458.59;4348817;32;34333;-68
2023/03/29 00:30:13;;;;;;;3.30;0.93;;;;;;;23.60;36.95;100451.47;4361966;32;34374;-67
2023/03/29 00:32:41;;;;;;;1.62;0.82;;;;;;;23.59;36.95;100447.88;4336317;32;33683;-69
2023/03/29 00:35:09;;;;;;;2.85;0.85;;;;;;;23.58;36.94;100448.09;4362211;32;34065;-66
2023/03/29 00:37:37;;;;;;;2.17;0.80;;;;;;;23.58;36.96;100443.50;4348786;32;33754;-69
2023/03/29 00:40:09;;;;;;;3.65;1.15;;;;;;;23.56;36.96;100445.59;4362215;32;33577;-65
2023/03/29 00:42:37;;;;;;;1.85;0.90;;;;;;;23.56;36.97;100445.59;4362349;32;34521;-68
2023/03/29 00:45:11;;;;;;;2.35;0.80;;;;;;;23.56;36.98;100440.16;4348581;32;32814;-65
2023/03/29 00:47:50;;;;;;;3.00;0.95;;;;;;;23.55;36.99;100443.94;4348517;32;33716;-66
2023/03/29 00:51:07;;;;;;;1.65;0.80;;;;;;;23.55;37.00;100441.22;4336291;32;32866;-65
2023/03/29 00:54:03;;;;;;;2.40;1.10;;;;;;;23.56;36.96;100440.16;4346748;32;33657;-66
2023/03/29 00:56:34;;;;;;;1.05;0.80;;;;;;;23.56;36.96;100437.44;4347158;32;34423;-65
2023/03/29 00:59:13;;;;;;;1.65;0.88;;;;;;;23.52;37.04;100438.91;4348867;32;33474;-69
2023/03/29 01:01:44;;;;;;;0.93;0.80;;;;;;;23.53;37.03;100439.72;4336396;32;33801;-66
2023/03/29 01:04:31;;;;;;;2.80;0.80;;;;;;;23.51;37.05;100426.34;4348506;32;34759;-66
2023/03/29 01:07:02;;;;;;;2.72;1.10;;;;;;;23.50;37.03;100423.81;4336351;32;33558;-68
2023/03/29 01:09:32;;;;;;;4.22;1.00;;;;;;;23.49;37.06;100425.69;4336506;32;32243;-64
2023/03/29 01:12:01;;;;;;;1.87;0.80;;;;;;;23.47;37.07;100419.63;4350866;32;33586;-66
2023/03/29 01:14:34;;;;;;;3.45;1.10;;;;;;;23.47;37.12;100416.06;4363774;32;32930;-67
2023/03/29 01:17:03;;;;;;;0.95;0.65;;;;;;;23.47;37.11;100405.19;4363619;32;34966;-65
2023/03/29 01:19:36;;;;;;;1.67;0.82;;;;;;;23.46;37.14;100407.06;4376976;32;33323;-68
2023/03/29 01:22:28;;;;;;;2.40;0.80;;;;;;;23.45;37.15;100394.47;4351855;32;33860;-66
2023/03/29 01:25:04;;;;;;;2.25;0.90;;;;;;;23.46;37.13;100401.62;4376574;32;33943;-66
2023/03/29 01:27:41;;;;;;;3.20;0.95;;;;;;;23.43;37.19;100402.87;4364017;32;34739;-66
2023/03/29 01:30:12;;;;;;;2.60;0.90;;;;;;;23.43;37.19;100405.59;4376750;32;33414;-66
2023/03/29 01:32:59;;;;;;;1.30;0.90;;;;;;;23.41;37.19;100399.53;4363180;32;33990;-68
2023/03/29 01:35:43;;;;;;;1.55;0.73;;;;;;;23.43;37.21;100399.31;4364295;32;34745;-69
2023/03/29 01:38:27;;;;;;;1.52;0.90;;;;;;;23.40;37.20;100397.84;4352453;32;34756;-69
2023/03/29 01:40:54;;;;;;;1.83;0.77;;;;;;;23.41;37.21;100404.97;4351137;32;33243;-66
2023/03/29 01:43:27;;;;;;;1.75;1.00;;;;;;;23.38;37.24;100399.94;4338596;32;33818;-70
2023/03/29 01:46:08;;;;;;;2.22;0.80;;;;;;;23.39;37.26;100400.78;4363231;32;33478;-65
2023/03/29 01:49:17;;;;;;;2.35;0.82;;;;;;;23.39;37.26;100400.78;4363049;32;34045;-65
2023/03/29 01:51:50;;;;;;;1.25;0.55;;;;;;;23.40;37.25;100402.44;4358684;32;34158;-66
2023/03/29 01:54:27;;;;;;;1.70;0.90;;;;;;;23.36;37.30;100396.63;4351038;32;34399;-65
2023/03/29 01:56:55;;;;;;;1.30;0.60;;;;;;;23.37;37.34;100398.28;4351352;32;34787;-69
2023/03/29 01:59:28;;;;;;;2.10;0.80;;;;;;;23.36;37.37;100404.78;4350972;32;34601;-66
2023/03/29 02:01:58;;;;;;;2.55;0.93;;;;;;;23.36;37.39;100407.50;4350831;32;33076;-68
2023/03/29 02:04:29;;;;;;;1.10;0.73;;;;;;;23.35;37.44;100399.53;4351479;32;34672;-69
2023/03/29 02:06:58;;;;;;;1.98;0.93;;;;;;;23.35;37.45;100404.97;4350743;32;33847;-65
2023/03/29 02:09:25;;;;;;;1.52;0.70;;;;;;;23.35;37.44;100405.81;4351075;32;34309;-66
2023/03/29 02:11:54;;;;;;;2.55;0.80;;;;;;;23.35;37.44;100407.69;4361128;32;34434;-68
2023/03/29 02:14:23;;;;;;;2.33;0.90;;;;;;;23.34;37.43;100393.25;4348091;32;33981;-68
2023/03/29 02:16:50;;;;;;;1.15;0.80;;;;;;;23.35;37.44;100391.34;4348345;32;34006;-66
2023/03/29 02:19:18;;;;;;;5.45;0.90;;;;;;;23.34;37.45;100398.69;4361503;32;33273;-68
2023/03/29 02:21:52;;;;;;;2.10;0.80;;;;;;;23.33;37.48;100398.91;4348067;32;33576;-66
2023/03/29 02:24:20;;;;;;;2.47;0.70;;;;;;;23.33;37.49;100396.19;4361413;32;34578;-68
2023/03/29 02:26:48;;;;;;;2.20;0.70;;;;;;;23.32;37.52;100406.25;4348161;32;33506;-67
2023/03/29 02:29:15;;;;;;;1.80;0.65;;;;;;;23.33;37.48;100396.19;4347908;32;34538;-66
2023/03/29 02:31:52;;;;;;;1.65;0.85;;;;;;;23.32;37.48;100397.25;4361729;32;33892;-66
2023/03/29 02:34:36;;;;;;;2.17;0.85;;;;;;;23.32;37.53;100394.53;4349082;32;34773;-66
2023/03/29 02:37:10;;;;;;;2.97;0.90;;;;;;;23.32;37.50;100397.25;4336349;32;34854;-67
2023/03/29 02:39:38;;;;;;;2.72;1.10;;;;;;;23.30;37.52;100399.31;4335461;32;32522;-67
2023/03/29 02:42:06;;;;;;;3.53;0.80;;;;;;;23.28;37.53;100399.56;4336030;32;33625;-67
2023/03/29 02:44:35;;;;;;;0.95;0.80;;;;;;;23.29;37.56;100405.84;4335797;32;33601;-67
2023/03/29 02:47:30;;;;;;;2.25;1.05;;;;;;;23.28;37.53;100415.88;4347645;32;33573;-68
2023/03/29 02:49:58;;;;;;;2.08;0.88;;;;;;;23.31;37.49;100411.88;4345043;32;34255;-65
2023/03/29 02:52:32;;;;;;;1.42;1.00;;;;;;;23.29;37.54;100416.72;4323234;32;33784;-65
2023/03/29 02:55:01;;;;;;;1.77;0.70;;;;;;;23.27;37.55;100418.81;4347464;32;33932;-66
2023/03/29 02:57:31;;;;;;;1.10;0.85;;;;;;;23.28;37.56;100417.78;4336315;32;33970;-67
2023/03/29 02:59:58;;;;;;;0.95;0.70;;;;;;;23.27;37.54;100414.22;4336116;32;34907;-70
2023/03/29 03:02:26;;;;;;;1.23;0.60;;;;;;;23.26;37.56;100419.84;4347685;32;33458;-66
2023/03/29 03:04:54;;;;;;;1.90;0.90;;;;;;;23.26;37.58;100422.56;4347547;32;34868;-66
2023/03/29 03:07:23;;;;;;;2.50;0.90;;;;;;;23.25;37.55;100415.47;4347820;32;33912;-66
2023/03/29 03:09:51;;;;;;;1.52;0.80;;;;;;;23.25;37.54;100420.91;4361077;32;34087;-69
2023/03/29 03:12:19;;;;;;;1.42;0.68;;;;;;;23.25;37.54;100426.34;4351635;32;33413;-65
2023/03/29 03:14:47;;;;;;;1.52;0.88;;;;;;;23.24;37.55;100421.97;4362790;32;34334;-66
2023/03/29 03:17:14;;;;;;;2.15;0.90;;;;;;;23.23;37.55;100423.84;4362307;32;34481;-68
2023/03/29 03:19:42;;;;;;;1.62;0.70;;;;;;;23.22;37.55;100426.75;4350127;32;34749;-67
2023/03/29 03:22:10;;;;;;;1.45;0.60;;;;;;;23.18;37.61;100426.38;4337794;32;33202;-65
2023/03/29 03:24:38;;;;;;;1.02;0.73;;;;;;;23.16;37.68;100426.56;4375976;32;34553;-69
2023/03/29 03:27:07;;;;;;;2.10;0.88;;;;;;;23.14;37.76;100425.09;4375906;32;34655;-65
2023/03/29 03:29:35;;;;;;;0.93;0.70;;;;;;;23.13;37.76;100434.31;4362310;32;34195;-67
2023/03/29 03:32:03;;;;;;;1.30;0.80;;;;;;;23.12;37.78;100438.06;4350301;32;34382;-66
2023/03/29 03:34:33;;;;;;;1.73;0.90;;;;;;;23.11;37.78;100433.69;4375532;32;32772;-65
2023/03/29 03:37:01;;;;;;;1.55;0.70;;;;;;;23.10;37.78;100429.28;4362143;32;33596;-68
2023/03/29 03:39:29;;;;;;;2.08;0.73;;;;;;;23.09;37.78;100431.19;4362319;32;35098;-67
2023/03/29 03:41:57;;;;;;;1.48;0.73;;;;;;;23.07;37.79;100432.41;4349410;32;33281;-69
2023/03/29 03:44:25;;;;;;;1.33;0.95;;;;;;;23.06;37.80;100439.75;4375669;32;34341;-68
2023/03/29 03:46:54;;;;;;;4.10;0.98;;;;;;;23.06;37.80;100431.59;4375304;32;32973;-67
2023/03/29 03:49:22;;;;;;;1.90;1.00;;;;;;;23.06;37.82;100437.03;4375583;32;34071;-68
2023/03/29 03:51:49;;;;;;;2.55;0.90;;;;;;;23.07;37.83;100448.75;4362139;32;32898;-66
2023/03/29 03:54:19;;;;;;;0.95;0.70;;;;;;;23.06;37.83;100447.91;4362002;32;33840;-66
2023/03/29 03:56:48;;;;;;;3.42;0.80;;;;;;;23.06;37.83;100445.19;4361701;32;34486;-66
2023/03/29 03:59:16;;;;;;;2.00;0.95;;;;;;;23.07;37.84;100444.16;4362047;32;34051;-66
2023/03/29 04:01:44;;;;;;;2.67;0.82;;;;;;;23.06;37.84;100449.81;4375278;32;34352;-67
2023/03/29 04:04:13;;;;;;;1.95;0.60;;;;;;;23.05;37.84;100454.41;4349657;32;32797;-65
2023/03/29 04:06:43;;;;;;;1.75;0.90;;;;;;;23.05;37.85;100454.41;4339098;32;33520;-65
2023/03/29 04:09:14;;;;;;;2.17;0.88;;;;;;;23.05;37.83;100448.13;4339693;32;33025;-65
2023/03/29 04:11:41;;;;;;;2.67;0.75;;;;;;;23.03;37.84;100445.59;4376782;32;33493;-65
2023/03/29 04:14:10;;;;;;;1.52;0.82;;;;;;;23.02;37.85;100445.81;4349227;32;33937;-66
2023/03/29 04:16:38;;;;;;;1.20;0.82;;;;;;;23.00;37.86;100453.38;4325215;32;33790;-65
2023/03/29 04:19:07;;;;;;;1.70;0.70;;;;;;;23.00;37.87;100447.94;4349237;32;33747;-68
2023/03/29 04:21:35;;;;;;;1.67;0.80;;;;;;;23.00;37.87;100445.22;4336786;32;32236;-66
2023/03/29 04:24:03;;;;;;;1.52;0.80;;;;;;;22.99;37.87;100436.22;4348817;32;33726;-70
2023/03/29 04:26:31;;;;;;;0.93;0.70;;;;;;;23.01;37.84;100439.53;4348880;32;34103;-66
2023/03/29 04:29:00;;;;;;;2.08;1.00;;;;;;;23.03;37.80;100445.59;4348793;32;33292;-66
2023/03/29 04:31:29;;;;;;;1.90;1.00;;;;;;;23.03;37.75;100437.44;4349216;32;33506;-70
2023/03/29 04:33:58;;;;;;;2.33;0.88;;;;;;;23.01;37.77;100447.72;4337146;32;34722;-65
2023/03/29 04:36:27;;;;;;;3.80;0.95;;;;;;;23.01;37.82;100450.44;4324529;32;33324;-67
2023/03/29 04:38:55;;;;;;;2.12;0.98;;;;;;;22.99;37.85;100452.53;4348701;32;33534;-65
2023/03/29 04:41:26;;;;;;;1.45;0.82;;;;;;;23.01;37.81;100455.88;4349099;32;34468;-68
2023/03/29 04:43:54;;;;;;;0.98;0.70;;;;;;;23.06;37.73;100461.53;4336892;32;33846;-67
2023/03/29 04:46:25;;;;;;;3.70;0.98;;;;;;;23.06;37.72;100460.69;4324595;32;33465;-68
2023/03/29 04:48:54;;;;;;;2.40;0.90;;;;;;;23.07;37.71;100459.62;4337264;32;33852;-70
2023/03/29 04:51:23;;;;;;;4.15;1.52;;;;;;;23.07;37.73;100463.19;4324329;32;32809;-70
2023/03/29 04:53:50;;;;;;;2.75;1.27;;;;;;;23.07;37.33;100467.81;4336613;32;33684;-72
2023/03/29 04:56:18;;;;;;;3.40;1.48;;;;;;;23.07;36.34;100465.09;4348732;32;34631;-74
2023/03/29 04:58:49;;;;;;;2.92;1.50;;;;;;;23.05;36.09;100465.31;4324630;32;33877;-69
2023/03/29 05:01:17;;;;;;;2.90;1.25;;;;;;;23.03;36.04;100461.94;4336535;32;33939;-72
2023/03/29 05:03:45;;;;;;;4.43;1.60;;;;;;;23.03;36.06;100458.38;4324107;32;32636;-72
2023/03/29 05:06:15;;;;;;;;;;;;;;;23.01;36.07;100466.75;4349136;32;34024;-70
2023/03/29 05:08:43;;;;;;;3.58;1.50;;;;;;;23.07;35.95;100463.19;4348520;32;34217;-72
2023/03/29 05:11:12;;;;;;;4.97;1.87;;;;;;;22.99;35.88;100462.56;4336189;32;32951;-70
2023/03/29 05:13:41;;;;;;;3.10;1.50;;;;;;;22.95;35.90;100461.31;4336861;32;33148;-70
2023/03/29 05:16:09;;;;;;;3.45;1.40;;;;;;;22.94;35.85;100470.50;4351187;32;33514;-71
2023/03/29 05:18:38;;;;;;;4.22;1.80;;;;;;;22.91;35.83;100460.87;4350836;32;34813;-70
2023/03/29 05:21:06;;;;;;;3.47;1.58;;;;;;;22.88;35.78;100462.09;4363417;32;33407;-72
2023/03/29 05:23:35;;;;;;;4.80;1.98;;;;;;;22.88;35.72;100455.81;4348316;32;32395;-68
2023/03/29 05:26:06;;;;;;;8.55;1.80;;;;;;;22.86;35.79;100458.75;4359431;32;34061;-69
2023/03/29 05:28:34;;;;;;;13.75;2.42;;;;;;;22.87;35.76;100456.88;4347072;32;33768;-70
2023/03/29 05:31:03;;;;;;;6.15;1.95;;;;;;;22.86;35.76;100452.47;4346510;32;32450;-69
2023/03/29 05:33:33;;;;;;;3.47;1.58;;;;;;;22.85;35.74;100456.25;4358732;32;34450;-69
2023/03/29 05:36:06;;;;;;;4.50;2.03;;;;;;;22.84;35.68;100449.94;4334718;32;34174;-69
2023/03/29 05:38:37;;;;;;;6.97;1.75;;;;;;;22.83;35.60;100450.16;4360514;32;33779;-69
2023/03/29 05:41:05;;;;;;;5.20;1.90;;;;;;;22.83;35.58;100456.44;4347286;32;32609;-69
2023/03/29 05:43:33;;;;;;;5.95;2.05;;;;;;;22.83;35.54;100461.03;4335860;32;33566;-68
2023/03/29 05:46:01;;;;;;;5.68;1.87;;;;;;;22.83;35.47;100456.44;4335408;32;33009;-69
2023/03/29 05:48:29;;;;;;;6.10;2.20;;;;;;;22.82;35.45;100470.25;4360564;32;33940;-69
2023/03/29 05:50:57;;;;;;;4.53;2.00;;;;;;;22.82;35.42;100472.97;4348304;32;33246;-69
2023/03/29 05:53:26;;;;;;;6.70;2.00;;;;;;;22.81;35.40;100471.31;4360201;32;33750;-69
2023/03/29 05:55:54;;;;;;;5.03;2.03;;;;;;;22.79;35.38;100471.50;4336353;32;33186;-68
2023/03/29 05:58:21;;;;;;;4.00;1.67;;;;;;;22.79;35.35;100467.94;4347786;32;33971;-69
2023/03/29 06:00:50;;;;;;;8.02;1.83;;;;;;;22.79;35.29;100470.66;4360295;32;33569;-69
2023/03/29 06:03:23;;;;;;;5.80;1.83;;;;;;;22.79;35.27;100470.66;4348829;32;33734;-69
2023/03/29 06:05:58;;;;;;;5.43;1.87;;;;;;;22.77;35.24;100468.16;4349119;32;34775;-68
2023/03/29 06:08:27;;;;;;;5.90;1.90;;;;;;;22.77;35.23;100478.22;4324132;32;32980;-70
2023/03/29 06:11:03;;;;;;;4.70;2.00;;;;;;;22.76;35.18;100477.37;4348489;32;32519;-69
2023/03/29 06:13:33;;;;;;;4.85;1.98;;;;;;;22.76;35.17;100481.97;4333683;33;32654;-69
2023/03/29 06:16:01;;;;;;;4.07;2.17;;;;;;;22.76;35.15;100481.97;4321311;33;33482;-69
2023/03/29 06:18:28;;;;;;;4.60;1.70;;;;;;;22.74;35.13;100484.03;4333576;33;34063;-69
2023/03/29 06:20:56;;;;;;;6.03;1.75;;;;;;;22.75;35.09;100488.44;4345424;33;34380;-68
2023/03/29 06:23:24;;;;;;;5.90;2.10;;;;;;;22.74;35.09;100490.31;4318575;33;33734;-68
2023/03/29 06:25:52;;;;;;;5.25;2.17;;;;;;;22.74;35.05;100494.94;4318880;33;33922;-68
2023/03/29 06:28:20;;;;;;;3.70;1.80;;;;;;;22.74;35.04;100494.94;4330652;33;32814;-68
2023/03/29 06:30:48;;;;;;;5.80;1.85;;;;;;;22.74;35.04;100492.22;4331273;33;34369;-68
2023/03/29 06:33:16;;;;;;;4.45;1.80;;;;;;;22.71;35.01;100493.47;4342596;33;33841;-68
2023/03/29 06:35:45;;;;;;;5.10;2.00;;;;;;;22.72;35.04;100494.31;4318664;33;34018;-68
2023/03/29 06:38:14;;;;;;;4.40;1.55;;;;;;;22.71;35.05;100492.59;4307018;33;34848;-68
2023/03/29 06:40:44;;;;;;;;;;;;;;;22.71;35.06;100498.03;4318885;33;32460;-69
2023/03/29 06:43:12;;;;;;;4.60;1.90;;;;;;;22.80;34.93;100494.09;4332186;33;34027;-69
2023/03/29 06:45:41;;;;;;;4.47;2.10;;;;;;;22.72;35.05;100489.69;4318600;33;33729;-69
2023/03/29 06:48:11;;;;;;;3.05;1.83;;;;;;;22.71;35.10;100490.75;4330543;33;33899;-69
2023/03/29 06:50:40;;;;;;;4.35;2.03;;;;;;;22.70;35.14;100482.78;4330526;33;34264;-69
2023/03/29 06:53:08;;;;;;;4.97;2.10;;;;;;;22.70;35.14;100491.78;4331508;33;33942;-68
2023/03/29 06:55:36;;;;;;;6.03;2.37;;;;;;;22.71;35.17;100492.59;4331697;33;34871;-68
2023/03/29 06:58:08;;;;;;;4.20;1.75;;;;;;;22.70;35.18;100496.38;4306969;33;32828;-69
2023/03/29 07:00:37;;;;;;;5.87;1.80;;;;;;;22.70;35.18;100502.66;4318654;33;33582;-69
2023/03/29 07:03:06;;;;;;;3.95;1.85;;;;;;;22.71;35.16;100501.63;4318576;33;32565;-68
2023/03/29 07:05:40;;;;;;;3.50;1.65;;;;;;;22.72;35.16;100505.19;4306432;33;33155;-68
2023/03/29 07:10:39;;;;;;;6.03;2.20;;;;;;;22.73;35.19;100515.84;4330400;33;33611;-68
2023/03/29 07:13:12;;;;;;;3.60;1.98;;;;;;;22.72;35.19;100519.63;4306986;33;32775;-69
2023/03/29 07:15:42;;;;;;;4.05;1.90;;;;;;;22.72;35.19;100525.06;4318893;33;33872;-68
2023/03/29 07:18:10;;;;;;;3.72;1.60;;;;;;;22.73;35.19;100531.34;4330364;33;34852;-68
2023/03/29 07:20:37;;;;;;;4.00;2.12;;;;;;;22.73;35.18;100531.34;4330056;33;33684;-69
2023/03/29 07:23:06;;;;;;;3.60;1.60;;;;;;;22.71;35.19;100539.72;4318356;33;34442;-69
2023/03/29 07:25:35;;;;;;;6.10;2.00;;;;;;;22.73;35.18;100536.78;4318193;33;33890;-70
2023/03/29 07:28:02;;;;;;;4.57;1.92;;;;;;;22.73;35.18;100544.94;4329880;33;34489;-68
2023/03/29 07:30:31;;;;;;;4.47;1.80;;;;;;;22.74;35.16;100541.19;4318210;33;33701;-68
2023/03/29 07:33:03;;;;;;;4.90;2.08;;;;;;;22.73;35.15;100537.63;4330626;33;32739;-68
2023/03/29 07:35:32;;;;;;;4.45;1.83;;;;;;;22.76;35.12;100536.38;4329950;33;33525;-68
2023/03/29 07:38:00;;;;;;;3.33;1.37;;;;;;;22.75;35.13;100538.25;4329930;33;33731;-69
2023/03/29 07:40:28;;;;;;;4.93;1.73;;;;;;;22.76;35.10;100536.38;4333509;33;32973;-68
2023/03/29 07:43:09;;;;;;;4.68;1.83;;;;;;;22.76;35.09;100536.38;4340302;32;33738;-68
2023/03/29 07:45:41;;;;;;;4.28;1.90;;;;;;;22.76;35.09;100530.94;4345250;33;33320;-68
2023/03/29 07:48:09;;;;;;;4.05;2.00;;;;;;;22.77;35.09;100535.34;4343741;33;34206;-69
2023/03/29 07:50:37;;;;;;;4.57;1.67;;;;;;;22.78;35.08;100535.13;4334536;32;33640;-69
2023/03/29 07:53:06;;;;;;;2.85;1.48;;;;;;;22.78;35.07;100540.56;4334392;33;32962;-69
2023/03/29 07:55:34;;;;;;;4.32;1.87;;;;;;;22.79;35.10;100541.41;4334107;33;33901;-68
2023/03/29 07:58:05;;;;;;;5.05;1.98;;;;;;;22.79;35.08;100539.50;4322441;33;33734;-68
2023/03/29 08:00:32;;;;;;;3.47;1.65;;;;;;;22.78;35.08;100540.56;4344111;33;34035;-68
2023/03/29 08:03:02;;;;;;;2.58;1.42;;;;;;;22.79;35.10;100534.06;4332988;33;33429;-68
2023/03/29 08:05:30;;;;;;;2.97;1.50;;;;;;;22.80;35.10;100537.63;4333548;33;33962;-68
2023/03/29 08:08:08;;;;;;;3.90;1.77;;;;;;;22.82;35.05;100543.72;4335349;33;32991;-69
2023/03/29 08:10:38;;;;;;;4.40;1.85;;;;;;;22.81;35.06;100540.16;4346522;33;33561;-68
2023/03/29 08:13:07;;;;;;;4.70;1.75;;;;;;;22.81;35.06;100536.63;4346627;33;34649;-69
2023/03/29 08:15:37;;;;;;;3.42;1.70;;;;;;;22.81;35.05;100532.00;4334197;33;34149;-68
2023/03/29 08:18:06;;;;;;;3.90;1.80;;;;;;;22.82;35.07;100541.00;4322943;33;33812;-69
2023/03/29 08:20:34;;;;;;;4.03;1.67;;;;;;;22.84;35.04;100530.75;4347529;33;33372;-69
2023/03/29 08:23:02;;;;;;;2.67;1.30;;;;;;;22.83;35.04;100535.34;4339118;32;34547;-69
2023/03/29 08:25:30;;;;;;;3.10;1.50;;;;;;;22.84;35.07;100528.03;4377438;32;34059;-69
2023/03/29 08:27:57;;;;;;;4.30;1.80;;;;;;;22.85;35.07;100529.72;4339062;32;33009;-68
2023/03/29 08:30:26;;;;;;;5.60;1.92;;;;;;;22.85;35.08;100533.28;4363947;32;33584;-69
2023/03/29 08:32:55;;;;;;;6.13;1.57;;;;;;;22.85;35.08;100529.72;4351545;32;32919;-68
2023/03/29 08:35:23;;;;;;;3.83;1.67;;;;;;;22.86;35.08;100529.50;4348774;32;34325;-68
2023/03/29 08:37:52;;;;;;;5.37;1.70;;;;;;;22.88;35.09;100529.28;4349052;32;34183;-69
2023/03/29 08:40:21;;;;;;;5.03;1.92;;;;;;;22.86;35.11;100532.22;4348664;32;33385;-68
2023/03/29 08:43:15;;;;;;;2.85;1.45;;;;;;;22.86;35.11;100524.06;4349007;32;33021;-68
2023/03/29 08:45:53;;;;;;;5.65;1.80;;;;;;;22.89;35.08;100523.66;4340272;32;34091;-69
2023/03/29 08:48:43;;;;;;;2.33;1.40;;;;;;;22.86;35.13;100523.22;4355839;32;33878;-69
2023/03/29 08:51:37;;;;;;;4.18;1.73;;;;;;;22.89;35.10;100522.84;4342089;32;34360;-69
2023/03/29 08:54:26;;;;;;;4.78;1.77;;;;;;;22.87;35.13;100514.84;4348477;32;33562;-69
2023/03/29 08:57:03;;;;;;;4.50;1.45;;;;;;;22.88;35.15;100510.25;4324940;32;33034;-69
2023/03/29 08:59:33;;;;;;;4.07;1.45;;;;;;;22.86;35.18;100509.62;4364032;32;33624;-69
2023/03/29 09:02:03;;;;;;;3.20;1.55;;;;;;;22.87;35.16;100506.69;4354209;32;33709;-69
2023/03/29 09:04:32;;;;;;;3.62;1.50;;;;;;;22.87;35.17;100505.84;4343266;32;34185;-69
2023/03/29 09:07:02;;;;;;;3.08;1.48;;;;;;;22.86;35.19;100502.28;4347828;32;33895;-69
2023/03/29 09:09:32;;;;;;;2.75;1.45;;;;;;;22.87;35.19;100503.12;4341651;32;34103;-69
2023/03/29 09:12:10;;;;;;;2.95;1.40;;;;;;;22.86;35.20;100491.41;4329992;32;33260;-69
2023/03/29 09:15:10;;;;;;;3.28;1.30;;;;;;;22.87;35.18;100493.09;4363648;32;34419;-69
2023/03/29 09:17:38;;;;;;;3.22;1.40;;;;;;;22.88;35.19;100483.03;4365991;32;34745;-69
2023/03/29 09:20:36;;;;;;;3.35;1.48;;;;;;;22.86;35.21;100487.84;4362156;32;33827;-69
2023/03/29 09:23:19;;;;;;;2.92;1.50;;;;;;;22.87;35.21;100484.09;4334891;33;33320;-68
2023/03/29 09:25:54;;;;;;;2.92;1.40;;;;;;;22.85;35.24;100483.47;4355925;32;34177;-70
2023/03/29 09:28:56;;;;;;;4.80;1.50;;;;;;;22.82;35.30;100472.97;4359646;32;33952;-69
2023/03/29 09:31:25;;;;;;;;;;;;;;;22.84;35.28;100479.03;4320591;33;33631;-69
2023/03/29 09:34:17;;;;;;;4.65;1.37;;;;;;;22.90;35.15;100484.53;4346285;33;34352;-69
2023/03/29 09:37:04;;;;;;;2.45;1.30;;;;;;;22.83;35.26;100472.75;4346297;33;34619;-69
2023/03/29 09:39:32;;;;;;;3.60;1.35;;;;;;;22.81;35.33;100476.75;4360094;32;33855;-67
2023/03/29 09:42:03;;;;;;;2.80;1.42;;;;;;;22.79;35.36;100471.50;4363569;32;33320;-68
2023/03/29 09:44:35;;;;;;;2.87;1.40;;;;;;;22.77;35.39;100478.22;4363582;32;33403;-68
2023/03/29 09:47:08;;;;;;;3.85;1.40;;;;;;;22.77;35.39;100467.31;4375374;32;33936;-68
2023/03/29 09:49:39;;;;;;;3.10;1.30;;;;;;;22.77;35.39;100464.59;4351463;32;34151;-68
2023/03/29 09:52:11;;;;;;;4.28;2.08;;;;;;;22.75;35.41;100462.06;4363193;32;32961;-68
2023/03/29 09:54:42;;;;;;;5.47;1.77;;;;;;;22.75;35.41;100456.63;4375462;32;33574;-68
2023/03/29 09:57:15;;;;;;;2.75;1.40;;;;;;;22.74;35.42;100460.41;4375651;32;34385;-68
2023/03/29 09:59:47;;;;;;;3.15;1.52;;;;;;;22.74;35.44;100462.28;4375507;32;33792;-68
2023/03/29 10:02:17;;;;;;;2.85;1.25;;;;;;;22.74;35.44;100465.84;4375717;32;34013;-65
2023/03/29 10:05:02;;;;;;;4.45;1.67;;;;;;;22.73;35.44;100452.44;4361807;32;32532;-66
2023/03/29 10:07:39;;;;;;;5.07;2.33;;;;;;;22.76;34.69;100446.59;4361803;32;33851;-68
2023/03/29 10:10:09;;;;;;;3.20;1.65;;;;;;;22.72;30.71;100435.28;4360558;32;33904;-68
2023/03/29 10:12:36;;;;;;;5.90;2.12;;;;;;;22.62;29.66;100427.53;4348309;32;33110;-68
2023/03/29 10:15:04;;;;;;;4.28;1.87;;;;;;;22.57;29.19;100431.88;4360317;32;33361;-68
2023/03/29 10:17:38;;;;;;;4.87;2.40;;;;;;;22.50;28.19;100434.59;4336430;32;32953;-68
2023/03/29 10:20:09;;;;;;;5.53;1.98;;;;;;;22.44;27.41;100440.03;4360509;32;34029;-68
2023/03/29 10:22:39;;;;;;;6.68;2.37;;;;;;;22.37;27.19;100437.28;4347814;32;33067;-69
2023/03/29 10:25:14;;;;;;;4.30;1.80;;;;;;;22.31;26.86;100433.50;4376451;32;33876;-68
2023/03/29 10:27:42;;;;;;;5.00;2.10;;;;;;;22.25;26.91;100438.94;4350871;32;34625;-69
2023/03/29 10:30:11;;;;;;;6.20;1.70;;;;;;;22.25;27.35;100428.88;4362810;32;33721;-69
2023/03/29 10:32:39;;;;;;;5.22;1.80;;;;;;;22.25;28.00;100425.34;4338644;32;32987;-68
2023/03/29 10:35:21;;;;;;;3.80;1.70;;;;;;;22.28;28.27;100424.91;4350266;32;32142;-69
2023/03/29 10:37:50;;;;;;;3.03;1.60;;;;;;;22.34;28.31;100421.41;4362983;32;33611;-68
2023/03/29 10:40:29;;;;;;;3.70;1.70;;;;;;;22.38;28.45;100420.78;4362932;32;33878;-69
2023/03/29 10:43:11;;;;;;;4.03;1.70;;;;;;;22.44;28.52;100412.84;4351494;32;34025;-69
2023/03/29 10:45:38;;;;;;;2.80;1.50;;;;;;;22.50;28.66;100407.41;4350295;32;32707;-69
2023/03/29 10:48:10;;;;;;;3.00;1.48;;;;;;;22.60;28.76;100399.69;4362647;32;33637;-69
2023/03/29 10:50:38;;;;;;;3.95;1.42;;;;;;;22.70;28.93;100402.00;4350852;32;34233;-69
2023/03/29 10:53:21;;;;;;;3.65;1.42;;;;;;;22.84;29.05;100408.28;4350420;32;34631;-68
2023/03/29 10:56:07;;;;;;;4.68;1.50;;;;;;;22.97;29.17;100402.91;4362621;32;34428;-68
2023/03/29 10:58:59;;;;;;;3.40;1.40;;;;;;;23.06;29.30;100396.19;4375938;32;34170;-69
2023/03/29 11:01:45;;;;;;;4.30;1.40;;;;;;;23.16;29.38;100391.16;4360592;32;87857;-69
2023/03/29 11:04:34;;;;;;;3.72;1.27;;;;;;;23.25;29.51;100399.13;4361560;32;33754;-69
2023/03/29 11:07:18;;;;;;;5.22;1.90;;;;;;;23.29;29.59;100400.38;4377611;32;33444;-68
2023/03/29 11:09:48;;;;;;;2.30;1.10;;;;;;;23.37;29.70;100394.72;4377630;32;34054;-68
2023/03/29 11:12:40;;;;;;;4.97;1.65;;;;;;;23.40;29.77;100391.56;4352012;32;34412;-68
2023/03/29 11:15:29;;;;;;;2.20;1.00;;;;;;;23.44;29.85;100384.62;4337608;32;34921;-68
2023/03/29 11:18:22;;;;;;;3.05;1.20;;;;;;;23.49;29.90;100382.13;4352581;32;33092;-70
2023/03/29 11:21:19;;;;;;;3.12;1.40;;;;;;;23.50;29.97;100380.22;4358357;32;32352;-70
2023/03/29 11:23:49;;;;;;;4.12;1.30;;;;;;;23.54;30.04;100378.75;4360530;32;34675;-69
2023/03/29 11:26:23;;;;;;;2.35;1.23;;;;;;;23.54;30.14;100386.91;4358117;32;33567;-69
2023/03/29 11:29:12;;;;;;;2.70;1.25;;;;;;;23.55;30.22;100383.13;4354531;32;32586;-70
2023/03/29 11:31:46;;;;;;;2.03;1.20;;;;;;;23.56;30.25;100374.78;4348670;32;34031;-69
2023/03/29 11:34:23;;;;;;;3.45;1.40;;;;;;;23.55;30.33;100374.97;4352387;32;33629;-70
2023/03/29 11:37:18;;;;;;;3.08;1.33;;;;;;;23.57;30.38;100371.00;4343007;32;33671;-69
2023/03/29 11:40:10;;;;;;;2.78;1.37;;;;;;;23.56;30.48;100366.59;4366674;32;34370;-69
2023/03/29 11:42:40;;;;;;;3.25;1.25;;;;;;;23.56;30.54;100352.97;4367922;32;33903;-70
2023/03/29 11:45:13;;;;;;;3.28;1.40;;;;;;;23.54;30.61;100363.25;4367110;32;33908;-68
2023/03/29 11:47:41;;;;;;;5.43;1.35;;;;;;;23.54;30.68;100359.69;4362176;32;34092;-68
2023/03/29 11:50:52;;;;;;;2.37;1.30;;;;;;;23.53;30.75;100356.13;4349818;32;33840;-68
2023/03/29 11:53:31;;;;;;;2.10;1.17;;;;;;;23.54;30.80;100356.97;4357484;32;33095;-69